createdAt,value
2022-12-09T00:00:19.780Z,23.91
2022-12-09T00:05:26.988Z,23.85
2022-12-09T00:10:34.301Z,23.84
2022-12-09T00:15:41.499Z,23.84
2022-12-09T00:20:48.626Z,23.85
2022-12-09T00:25:56.022Z,23.79
2022-12-09T00:31:03.124Z,23.74
2022-12-09T00:36:10.267Z,23.75
2022-12-09T00:41:17.549Z,23.70
2022-12-09T00:46:24.643Z,23.63
2022-12-09T00:51:32.066Z,23.66
2022-12-09T00:56:39.168Z,23.67
2022-12-09T01:01:46.219Z,23.73
2022-12-09T01:06:53.381Z,23.82
2022-12-09T01:12:00.508Z,23.76
2022-12-09T01:17:07.823Z,23.84
2022-12-09T01:22:14.948Z,23.78
2022-12-09T01:27:22.405Z,23.77
2022-12-09T01:32:29.715Z,23.74
2022-12-09T01:37:36.719Z,23.74
2022-12-09T01:42:43.669Z,23.70
2022-12-09T01:47:51.241Z,23.69
2022-12-09T01:52:58.171Z,23.75
2022-12-09T01:58:05.776Z,23.77
2022-12-09T02:03:12.991Z,23.86
2022-12-09T02:08:20.217Z,23.82
2022-12-09T02:13:27.420Z,23.83
2022-12-09T02:18:34.326Z,23.74
2022-12-09T02:23:41.512Z,23.76
2022-12-09T02:28:48.835Z,23.67
2022-12-09T02:33:55.888Z,23.66
2022-12-09T02:39:03.400Z,23.66
2022-12-09T02:44:10.298Z,23.67
2022-12-09T02:49:17.568Z,23.63
2022-12-09T02:54:25.135Z,23.59
2022-12-09T02:59:32.174Z,23.56
2022-12-09T03:04:39.343Z,23.54
2022-12-09T03:09:46.489Z,23.59
2022-12-09T03:14:53.858Z,23.59
2022-12-09T03:20:00.963Z,23.66
2022-12-09T03:25:08.190Z,23.70
2022-12-09T03:30:15.806Z,23.73
2022-12-09T03:35:22.670Z,23.74
2022-12-09T03:40:30.067Z,23.63
2022-12-09T03:45:37.173Z,23.61
2022-12-09T03:50:44.424Z,23.59
2022-12-09T03:55:51.587Z,23.50
2022-12-09T04:00:58.655Z,23.44
2022-12-09T04:06:05.743Z,23.54
2022-12-09T04:11:13.116Z,23.59
2022-12-09T04:16:20.256Z,23.63
2022-12-09T04:21:27.450Z,23.56
2022-12-09T04:26:34.912Z,23.65
2022-12-09T04:31:41.896Z,23.64
2022-12-09T04:36:49.329Z,23.59
2022-12-09T04:41:56.461Z,23.58
2022-12-09T04:47:03.683Z,23.53
2022-12-09T04:52:10.659Z,23.50
2022-12-09T04:57:17.763Z,23.46
2022-12-09T05:02:25.322Z,23.47
2022-12-09T05:07:32.416Z,23.41
2022-12-09T05:12:39.427Z,23.41
2022-12-09T05:17:46.894Z,23.44
2022-12-09T05:22:53.803Z,23.43
2022-12-09T05:28:01.117Z,23.35
2022-12-09T05:33:08.389Z,23.35
2022-12-09T05:38:15.703Z,23.33
2022-12-09T05:43:22.769Z,23.35
2022-12-09T05:48:30.210Z,23.34
2022-12-09T05:53:37.323Z,23.30
2022-12-09T05:58:44.427Z,23.28
2022-12-09T06:03:52.093Z,23.29
2022-12-09T06:08:58.829Z,23.36
2022-12-09T06:14:06.023Z,23.40
2022-12-09T06:19:13.221Z,23.58
2022-12-09T06:24:20.604Z,23.50
2022-12-09T06:29:27.617Z,23.60
2022-12-09T06:34:35.012Z,23.52
2022-12-09T06:39:42.482Z,23.53
2022-12-09T06:44:49.514Z,23.46
2022-12-09T06:50:01.123Z,23.42
2022-12-09T06:55:03.980Z,23.42
2022-12-09T07:00:11.478Z,23.39
2022-12-09T07:05:19.245Z,23.60
2022-12-09T07:10:25.933Z,23.56
2022-12-09T07:15:32.856Z,23.57
2022-12-09T07:20:40.308Z,23.61
2022-12-09T07:25:47.292Z,23.62
2022-12-09T07:30:54.517Z,23.63
2022-12-09T07:36:01.798Z,23.59
2022-12-09T07:41:09.494Z,23.60
2022-12-09T07:46:16.535Z,23.57
2022-12-09T07:51:23.542Z,23.56
2022-12-09T07:56:30.922Z,23.53
2022-12-09T08:01:38.000Z,23.53
2022-12-09T08:06:45.551Z,23.49
2022-12-09T08:11:52.507Z,23.46
2022-12-09T08:16:59.713Z,23.45
2022-12-09T08:22:06.937Z,24.36
2022-12-09T08:27:14.181Z,23.71
2022-12-09T08:32:21.753Z,23.89
2022-12-09T08:37:28.604Z,23.76
2022-12-09T08:42:35.956Z,23.79
2022-12-09T08:47:43.632Z,24.45
2022-12-09T08:52:50.614Z,24.42
2022-12-09T08:57:57.471Z,24.21
2022-12-09T09:03:04.967Z,24.16
2022-12-09T09:08:12.042Z,24.06
2022-12-09T09:13:19.505Z,24.13
2022-12-09T09:18:26.948Z,24.07
2022-12-09T09:23:34.003Z,23.96
2022-12-09T09:28:40.714Z,23.87
2022-12-09T09:33:48.194Z,24.21
2022-12-09T09:38:55.318Z,24.18
2022-12-09T09:44:02.834Z,24.12
2022-12-09T09:49:09.723Z,24.31
2022-12-09T09:54:16.867Z,24.43
2022-12-09T09:59:24.070Z,24.52
2022-12-09T10:04:31.652Z,24.88
2022-12-09T10:09:38.680Z,25.09
2022-12-09T10:14:45.972Z,25.20
2022-12-09T10:19:53.550Z,25.46
2022-12-09T10:25:00.780Z,25.76
2022-12-09T10:30:07.961Z,25.77
2022-12-09T10:35:15.288Z,25.88
2022-12-09T10:40:22.093Z,26.26
2022-12-09T10:45:45.588Z,26.41
2022-12-09T10:50:36.515Z,26.55
2022-12-09T10:55:43.454Z,26.78
2022-12-09T11:00:50.603Z,26.98
2022-12-09T11:05:58.122Z,27.17
2022-12-09T11:11:05.264Z,27.22
2022-12-09T11:16:12.588Z,27.33
2022-12-09T11:21:19.727Z,27.57
2022-12-09T11:26:27.170Z,27.72
2022-12-09T11:31:34.467Z,27.87
2022-12-09T11:36:44.116Z,27.98
2022-12-09T11:41:48.347Z,28.04
2022-12-09T11:46:55.587Z,28.25
2022-12-09T11:52:02.756Z,28.15
2022-12-09T11:57:09.926Z,28.31
2022-12-09T12:02:17.427Z,28.66
2022-12-09T12:07:24.581Z,28.72
2022-12-09T12:12:31.759Z,28.99
2022-12-09T12:17:39.012Z,29.02
2022-12-09T12:22:50.193Z,29.22
2022-12-09T12:27:53.391Z,29.35
2022-12-09T12:38:07.821Z,29.38
2022-12-09T12:43:15.008Z,29.44
2022-12-09T12:48:22.188Z,29.03
2022-12-09T12:53:29.318Z,28.86
2022-12-09T12:58:36.503Z,28.92
2022-12-09T13:03:43.695Z,28.92
2022-12-09T13:08:50.979Z,29.12
2022-12-09T13:13:58.173Z,29.08
2022-12-09T13:19:05.398Z,29.39
2022-12-09T13:24:12.650Z,29.25
2022-12-09T13:29:19.859Z,29.48
2022-12-09T13:34:27.127Z,29.38
2022-12-09T13:39:34.295Z,29.53
2022-12-09T13:44:41.435Z,29.76
2022-12-09T13:49:48.607Z,29.72
2022-12-09T13:54:55.799Z,29.88
2022-12-09T14:00:02.971Z,30.77
2022-12-09T14:05:10.149Z,30.28
2022-12-09T14:10:17.379Z,30.40
2022-12-09T14:15:24.564Z,30.19
2022-12-09T14:20:31.766Z,30.29
2022-12-09T14:25:39.083Z,30.45
2022-12-09T14:30:46.239Z,30.31
2022-12-09T14:35:53.380Z,29.97
2022-12-09T14:41:00.575Z,29.98
2022-12-09T14:46:07.838Z,29.94
2022-12-09T14:51:14.913Z,30.18
2022-12-09T14:56:22.104Z,30.44
2022-12-09T15:01:29.334Z,30.62
2022-12-09T15:06:36.566Z,30.70
2022-12-09T15:11:44.143Z,30.79
2022-12-09T15:16:51.626Z,30.79
2022-12-09T15:21:59.249Z,30.92
2022-12-09T15:27:06.886Z,30.88
2022-12-09T15:32:14.215Z,30.97
2022-12-09T15:37:21.674Z,31.10
2022-12-09T15:42:29.018Z,31.11
2022-12-09T15:47:36.492Z,31.18
2022-12-09T15:52:44.011Z,31.11
2022-12-09T15:57:51.675Z,31.35
2022-12-09T16:02:59.149Z,31.39
2022-12-09T16:08:06.215Z,30.41
2022-12-09T16:13:13.777Z,30.16
2022-12-09T16:18:21.367Z,29.67
2022-12-09T16:23:28.976Z,29.40
2022-12-09T16:28:36.331Z,29.08
2022-12-09T16:33:43.791Z,28.85
2022-12-09T16:38:51.408Z,28.70
2022-12-09T16:43:59.042Z,28.51
2022-12-09T16:49:06.327Z,28.30
2022-12-09T16:54:19.383Z,28.21
2022-12-09T16:59:21.489Z,27.94
2022-12-09T17:04:29.071Z,27.70
2022-12-09T17:09:37.711Z,27.86
2022-12-09T17:14:45.360Z,27.55
2022-12-09T17:19:52.933Z,27.33
2022-12-09T17:25:00.558Z,27.18
2022-12-09T17:30:08.206Z,27.06
2022-12-09T17:35:16.045Z,27.06
2022-12-09T17:40:22.649Z,26.99
2022-12-09T17:45:30.189Z,27.02
2022-12-09T17:50:37.706Z,26.86
2022-12-09T17:55:45.011Z,26.69
2022-12-09T18:00:52.561Z,26.64
2022-12-09T18:05:59.720Z,27.41
2022-12-09T18:11:07.062Z,28.29
2022-12-09T18:16:14.361Z,27.83
2022-12-09T18:21:21.572Z,28.47
2022-12-09T18:26:32.963Z,27.88
2022-12-09T18:31:36.095Z,27.67
2022-12-09T18:36:44.170Z,27.64
2022-12-09T18:41:51.528Z,27.52
2022-12-09T18:46:58.836Z,30.77
2022-12-09T18:52:06.114Z,31.22
2022-12-09T18:57:13.383Z,31.09
2022-12-09T19:02:20.972Z,31.13
2022-12-09T19:07:32.251Z,29.38
2022-12-09T19:12:47.077Z,28.41
2022-12-09T19:17:43.993Z,28.34
2022-12-09T19:22:51.585Z,28.22
2022-12-09T19:27:58.890Z,28.09
2022-12-09T19:33:07.462Z,28.10
2022-12-09T19:38:15.040Z,28.48
2022-12-09T19:43:22.760Z,28.35
2022-12-09T19:48:30.307Z,28.22
2022-12-09T19:53:37.600Z,28.07
2022-12-09T19:58:44.803Z,28.23
2022-12-09T20:03:52.327Z,28.06
2022-12-09T20:09:00.012Z,28.09
2022-12-09T20:14:07.624Z,28.54
2022-12-09T20:19:15.264Z,28.57
2022-12-09T20:24:22.852Z,28.47
2022-12-09T20:29:36.932Z,28.58
2022-12-09T20:34:37.518Z,27.87
2022-12-09T20:39:44.982Z,27.97
2022-12-09T20:44:52.379Z,27.70
2022-12-09T20:49:59.932Z,27.65
2022-12-09T20:55:07.622Z,27.68
2022-12-09T21:00:14.948Z,27.53
2022-12-09T21:05:22.466Z,28.28
2022-12-09T21:10:30.002Z,28.30
2022-12-09T21:15:37.508Z,27.56
2022-12-09T21:20:45.108Z,27.35
2022-12-09T21:25:52.691Z,27.65
2022-12-09T21:31:00.310Z,27.48
2022-12-09T21:36:07.951Z,27.75
2022-12-09T21:41:15.637Z,27.79
2022-12-09T21:46:23.002Z,27.62
2022-12-09T21:51:30.239Z,27.72
2022-12-09T21:56:37.407Z,27.75
2022-12-09T22:01:44.621Z,27.69
2022-12-09T22:06:51.798Z,27.30
2022-12-09T22:12:00.535Z,27.58
2022-12-09T22:17:07.685Z,27.25
2022-12-09T22:22:14.917Z,27.08
2022-12-09T22:27:26.015Z,27.47
2022-12-09T22:32:41.115Z,27.43
2022-12-09T22:37:44.648Z,27.33
2022-12-09T22:42:53.879Z,27.26
2022-12-09T22:48:01.064Z,27.32
2022-12-09T22:53:08.234Z,27.42
2022-12-09T22:58:15.431Z,27.29
2022-12-09T23:03:22.706Z,27.39
2022-12-09T23:08:29.792Z,27.34
2022-12-09T23:13:40.976Z,27.30
2022-12-09T23:18:44.225Z,27.34
2022-12-09T23:23:51.454Z,27.43
2022-12-09T23:28:58.667Z,27.35
2022-12-09T23:34:05.863Z,27.15
2022-12-09T23:39:13.050Z,27.04
2022-12-09T23:44:20.244Z,27.09
2022-12-09T23:49:27.405Z,27.13
2022-12-09T23:54:34.689Z,27.14
2022-12-09T23:59:41.920Z,27.07
